sensor_id;sensor_type;location;lat;lon;timestamp;P1;durP1;ratioP1;P2;durP2;ratioP2
5014;SDS011;2526;51.060;4.228;2023-04-03T00:01:14;5.45;;;2.95;;
5014;SDS011;2526;51.060;4.228;2023-04-03T00:03:40;5.20;;;3.20;;
5014;SDS011;2526;51.060;4.228;2023-04-03T00:06:07;4.82;;;2.42;;
5014;SDS011;2526;51.060;4.228;2023-04-03T00:08:34;5.45;;;2.75;;
5014;SDS011;2526;51.060;4.228;2023-04-03T00:11:00;4.70;;;2.67;;
5014;SDS011;2526;51.060;4.228;2023-04-03T00:13:25;4.70;;;2.78;;
5014;SDS011;2526;51.060;4.228;2023-04-03T00:15:51;3.83;;;2.33;;
5014;SDS011;2526;51.060;4.228;2023-04-03T00:18:17;4.20;;;2.00;;
5014;SDS011;2526;51.060;4.228;2023-04-03T00:20:43;2.85;;;2.10;;
5014;SDS011;2526;51.060;4.228;2023-04-03T00:23:09;4.85;;;2.30;;
5014;SDS011;2526;51.060;4.228;2023-04-03T00:25:34;6.65;;;3.10;;
5014;SDS011;2526;51.060;4.228;2023-04-03T00:28:00;2.90;;;1.85;;
5014;SDS011;2526;51.060;4.228;2023-04-03T00:30:26;3.42;;;3.10;;
5014;SDS011;2526;51.060;4.228;2023-04-03T00:32:51;4.22;;;2.63;;
5014;SDS011;2526;51.060;4.228;2023-04-03T00:35:17;4.28;;;2.47;;
5014;SDS011;2526;51.060;4.228;2023-04-03T00:37:43;5.43;;;3.13;;
5014;SDS011;2526;51.060;4.228;2023-04-03T00:40:09;5.97;;;3.38;;
5014;SDS011;2526;51.060;4.228;2023-04-03T00:42:39;3.35;;;2.60;;
5014;SDS011;2526;51.060;4.228;2023-04-03T00:47:30;3.35;;;2.13;;
5014;SDS011;2526;51.060;4.228;2023-04-03T00:49:56;7.43;;;2.40;;
5014;SDS011;2526;51.060;4.228;2023-04-03T00:52:23;3.67;;;1.85;;
5014;SDS011;2526;51.060;4.228;2023-04-03T00:54:51;3.72;;;2.38;;
5014;SDS011;2526;51.060;4.228;2023-04-03T00:57:18;3.00;;;2.20;;
5014;SDS011;2526;51.060;4.228;2023-04-03T00:59:45;2.83;;;1.83;;
5014;SDS011;2526;51.060;4.228;2023-04-03T01:02:11;2.78;;;2.17;;
5014;SDS011;2526;51.060;4.228;2023-04-03T01:04:37;2.47;;;2.15;;
5014;SDS011;2526;51.060;4.228;2023-04-03T01:07:05;2.75;;;1.63;;
5014;SDS011;2526;51.060;4.228;2023-04-03T01:09:31;2.47;;;1.52;;
5014;SDS011;2526;51.060;4.228;2023-04-03T01:14:42;2.67;;;1.67;;
5014;SDS011;2526;51.060;4.228;2023-04-03T01:19:54;4.40;;;3.13;;
5014;SDS011;2526;51.060;4.228;2023-04-03T01:22:26;4.88;;;2.63;;
5014;SDS011;2526;51.060;4.228;2023-04-03T01:24:56;3.35;;;2.15;;
5014;SDS011;2526;51.060;4.228;2023-04-03T01:27:21;4.93;;;2.97;;
5014;SDS011;2526;51.060;4.228;2023-04-03T01:29:47;9.60;;;2.63;;
5014;SDS011;2526;51.060;4.228;2023-04-03T01:32:12;6.63;;;2.60;;
5014;SDS011;2526;51.060;4.228;2023-04-03T01:34:38;6.85;;;3.10;;
5014;SDS011;2526;51.060;4.228;2023-04-03T01:37:03;4.38;;;2.13;;
5014;SDS011;2526;51.060;4.228;2023-04-03T01:39:29;4.10;;;2.60;;
5014;SDS011;2526;51.060;4.228;2023-04-03T01:41:54;4.88;;;2.72;;
5014;SDS011;2526;51.060;4.228;2023-04-03T01:44:20;5.82;;;2.92;;
5014;SDS011;2526;51.060;4.228;2023-04-03T01:46:45;4.35;;;2.38;;
5014;SDS011;2526;51.060;4.228;2023-04-03T01:49:14;4.68;;;3.17;;
5014;SDS011;2526;51.060;4.228;2023-04-03T01:51:41;4.95;;;2.72;;
5014;SDS011;2526;51.060;4.228;2023-04-03T01:54:07;4.15;;;2.50;;
5014;SDS011;2526;51.060;4.228;2023-04-03T01:56:32;2.83;;;1.92;;
5014;SDS011;2526;51.060;4.228;2023-04-03T01:58:57;4.38;;;2.17;;
5014;SDS011;2526;51.060;4.228;2023-04-03T02:01:29;3.08;;;2.30;;
5014;SDS011;2526;51.060;4.228;2023-04-03T02:03:55;5.63;;;3.90;;
5014;SDS011;2526;51.060;4.228;2023-04-03T02:06:21;6.00;;;2.90;;
5014;SDS011;2526;51.060;4.228;2023-04-03T02:08:46;2.30;;;1.95;;
5014;SDS011;2526;51.060;4.228;2023-04-03T02:11:12;6.13;;;2.65;;
5014;SDS011;2526;51.060;4.228;2023-04-03T02:13:37;3.45;;;1.98;;
5014;SDS011;2526;51.060;4.228;2023-04-03T02:16:07;6.43;;;2.55;;
5014;SDS011;2526;51.060;4.228;2023-04-03T02:18:32;5.97;;;3.38;;
5014;SDS011;2526;51.060;4.228;2023-04-03T02:20:58;3.97;;;3.05;;
5014;SDS011;2526;51.060;4.228;2023-04-03T02:23:32;3.28;;;2.03;;
5014;SDS011;2526;51.060;4.228;2023-04-03T02:26:30;4.68;;;3.45;;
5014;SDS011;2526;51.060;4.228;2023-04-03T02:29:28;5.32;;;3.03;;
5014;SDS011;2526;51.060;4.228;2023-04-03T02:32:03;3.95;;;2.38;;
5014;SDS011;2526;51.060;4.228;2023-04-03T02:34:51;2.63;;;2.00;;
5014;SDS011;2526;51.060;4.228;2023-04-03T02:37:42;3.80;;;2.70;;
5014;SDS011;2526;51.060;4.228;2023-04-03T02:40:12;4.80;;;3.03;;
5014;SDS011;2526;51.060;4.228;2023-04-03T02:42:40;6.35;;;3.20;;
5014;SDS011;2526;51.060;4.228;2023-04-03T02:45:06;4.88;;;2.85;;
5014;SDS011;2526;51.060;4.228;2023-04-03T02:47:32;3.25;;;1.92;;
5014;SDS011;2526;51.060;4.228;2023-04-03T02:49:57;4.10;;;2.83;;
5014;SDS011;2526;51.060;4.228;2023-04-03T02:52:22;4.05;;;3.30;;
5014;SDS011;2526;51.060;4.228;2023-04-03T02:54:52;6.32;;;3.95;;
5014;SDS011;2526;51.060;4.228;2023-04-03T02:57:18;4.05;;;2.38;;
5014;SDS011;2526;51.060;4.228;2023-04-03T02:59:44;3.03;;;2.67;;
5014;SDS011;2526;51.060;4.228;2023-04-03T03:02:10;8.57;;;2.78;;
5014;SDS011;2526;51.060;4.228;2023-04-03T03:04:36;6.15;;;3.33;;
5014;SDS011;2526;51.060;4.228;2023-04-03T03:07:06;5.00;;;2.08;;
5014;SDS011;2526;51.060;4.228;2023-04-03T03:09:35;5.82;;;2.42;;
5014;SDS011;2526;51.060;4.228;2023-04-03T03:12:04;3.70;;;2.65;;
5014;SDS011;2526;51.060;4.228;2023-04-03T03:14:30;5.90;;;2.60;;
5014;SDS011;2526;51.060;4.228;2023-04-03T03:17:04;3.25;;;2.47;;
5014;SDS011;2526;51.060;4.228;2023-04-03T03:19:30;4.55;;;2.72;;
5014;SDS011;2526;51.060;4.228;2023-04-03T03:21:55;3.88;;;2.67;;
5014;SDS011;2526;51.060;4.228;2023-04-03T03:24:25;2.08;;;1.63;;
5014;SDS011;2526;51.060;4.228;2023-04-03T03:26:52;5.00;;;2.42;;
5014;SDS011;2526;51.060;4.228;2023-04-03T03:29:17;5.10;;;3.08;;
5014;SDS011;2526;51.060;4.228;2023-04-03T03:31:44;4.50;;;2.78;;
5014;SDS011;2526;51.060;4.228;2023-04-03T03:34:09;4.38;;;2.70;;
5014;SDS011;2526;51.060;4.228;2023-04-03T03:36:35;7.75;;;2.35;;
5014;SDS011;2526;51.060;4.228;2023-04-03T03:39:11;3.75;;;2.40;;
5014;SDS011;2526;51.060;4.228;2023-04-03T03:41:47;3.72;;;2.35;;
5014;SDS011;2526;51.060;4.228;2023-04-03T03:44:14;5.88;;;2.78;;
5014;SDS011;2526;51.060;4.228;2023-04-03T03:46:40;2.92;;;2.47;;
5014;SDS011;2526;51.060;4.228;2023-04-03T03:49:05;4.75;;;2.38;;
5014;SDS011;2526;51.060;4.228;2023-04-03T03:51:31;5.05;;;2.70;;
5014;SDS011;2526;51.060;4.228;2023-04-03T03:54:03;2.33;;;1.83;;
5014;SDS011;2526;51.060;4.228;2023-04-03T03:56:31;2.63;;;2.05;;
5014;SDS011;2526;51.060;4.228;2023-04-03T03:58:57;3.22;;;2.38;;
5014;SDS011;2526;51.060;4.228;2023-04-03T04:01:23;6.57;;;2.47;;
5014;SDS011;2526;51.060;4.228;2023-04-03T04:03:48;4.50;;;2.72;;
5014;SDS011;2526;51.060;4.228;2023-04-03T04:06:14;5.10;;;2.55;;
5014;SDS011;2526;51.060;4.228;2023-04-03T04:08:40;5.10;;;3.35;;
5014;SDS011;2526;51.060;4.228;2023-04-03T04:11:05;4.95;;;3.13;;
5014;SDS011;2526;51.060;4.228;2023-04-03T04:13:31;4.82;;;3.10;;
5014;SDS011;2526;51.060;4.228;2023-04-03T04:15:56;5.13;;;2.63;;
5014;SDS011;2526;51.060;4.228;2023-04-03T04:18:22;3.17;;;2.28;;
5014;SDS011;2526;51.060;4.228;2023-04-03T04:20:48;6.38;;;3.55;;
5014;SDS011;2526;51.060;4.228;2023-04-03T04:23:13;5.60;;;3.40;;
5014;SDS011;2526;51.060;4.228;2023-04-03T04:25:39;8.27;;;3.95;;
5014;SDS011;2526;51.060;4.228;2023-04-03T04:28:05;7.78;;;3.13;;
5014;SDS011;2526;51.060;4.228;2023-04-03T04:30:30;4.68;;;3.10;;
5014;SDS011;2526;51.060;4.228;2023-04-03T04:32:55;5.13;;;3.55;;
5014;SDS011;2526;51.060;4.228;2023-04-03T04:35:21;6.72;;;3.47;;
5014;SDS011;2526;51.060;4.228;2023-04-03T04:37:46;3.40;;;2.85;;
5014;SDS011;2526;51.060;4.228;2023-04-03T04:40:12;8.07;;;4.07;;
5014;SDS011;2526;51.060;4.228;2023-04-03T04:42:37;5.45;;;3.72;;
5014;SDS011;2526;51.060;4.228;2023-04-03T04:45:03;3.80;;;3.33;;
5014;SDS011;2526;51.060;4.228;2023-04-03T04:47:29;6.40;;;4.70;;
5014;SDS011;2526;51.060;4.228;2023-04-03T04:49:54;6.95;;;3.33;;
5014;SDS011;2526;51.060;4.228;2023-04-03T04:52:20;4.97;;;3.40;;
5014;SDS011;2526;51.060;4.228;2023-04-03T04:54:46;6.10;;;3.58;;
5014;SDS011;2526;51.060;4.228;2023-04-03T04:57:11;9.98;;;4.20;;
5014;SDS011;2526;51.060;4.228;2023-04-03T04:59:37;5.55;;;3.85;;
5014;SDS011;2526;51.060;4.228;2023-04-03T05:02:02;3.88;;;2.63;;
5014;SDS011;2526;51.060;4.228;2023-04-03T05:04:27;4.53;;;3.53;;
5014;SDS011;2526;51.060;4.228;2023-04-03T05:06:53;6.03;;;3.85;;
5014;SDS011;2526;51.060;4.228;2023-04-03T05:09:21;4.03;;;2.85;;
5014;SDS011;2526;51.060;4.228;2023-04-03T05:11:47;7.80;;;3.55;;
5014;SDS011;2526;51.060;4.228;2023-04-03T05:14:12;4.70;;;2.97;;
5014;SDS011;2526;51.060;4.228;2023-04-03T05:16:38;6.28;;;4.50;;
5014;SDS011;2526;51.060;4.228;2023-04-03T05:19:03;6.95;;;4.07;;
5014;SDS011;2526;51.060;4.228;2023-04-03T05:21:29;6.35;;;4.25;;
5014;SDS011;2526;51.060;4.228;2023-04-03T05:24:00;7.10;;;3.83;;
5014;SDS011;2526;51.060;4.228;2023-04-03T05:26:28;4.60;;;3.33;;
5014;SDS011;2526;51.060;4.228;2023-04-03T05:28:54;3.15;;;2.40;;
5014;SDS011;2526;51.060;4.228;2023-04-03T05:31:19;7.53;;;4.18;;
5014;SDS011;2526;51.060;4.228;2023-04-03T05:33:45;6.13;;;3.83;;
5014;SDS011;2526;51.060;4.228;2023-04-03T05:36:11;7.25;;;3.95;;
5014;SDS011;2526;51.060;4.228;2023-04-03T05:38:38;3.05;;;2.58;;
5014;SDS011;2526;51.060;4.228;2023-04-03T05:41:03;7.03;;;3.58;;
5014;SDS011;2526;51.060;4.228;2023-04-03T05:43:29;4.55;;;3.13;;
5014;SDS011;2526;51.060;4.228;2023-04-03T05:45:54;8.65;;;3.13;;
5014;SDS011;2526;51.060;4.228;2023-04-03T05:48:20;6.85;;;3.42;;
5014;SDS011;2526;51.060;4.228;2023-04-03T05:50:45;7.20;;;4.18;;
5014;SDS011;2526;51.060;4.228;2023-04-03T05:53:14;6.70;;;4.43;;
5014;SDS011;2526;51.060;4.228;2023-04-03T05:55:40;8.90;;;4.35;;
5014;SDS011;2526;51.060;4.228;2023-04-03T05:58:06;5.20;;;3.30;;
5014;SDS011;2526;51.060;4.228;2023-04-03T06:00:31;3.83;;;2.22;;
5014;SDS011;2526;51.060;4.228;2023-04-03T06:02:57;8.45;;;3.67;;
5014;SDS011;2526;51.060;4.228;2023-04-03T06:05:22;4.57;;;3.42;;
5014;SDS011;2526;51.060;4.228;2023-04-03T06:07:48;11.10;;;3.78;;
5014;SDS011;2526;51.060;4.228;2023-04-03T06:10:15;4.60;;;4.00;;
5014;SDS011;2526;51.060;4.228;2023-04-03T06:12:40;4.32;;;3.30;;
5014;SDS011;2526;51.060;4.228;2023-04-03T06:15:07;6.30;;;4.90;;
5014;SDS011;2526;51.060;4.228;2023-04-03T06:17:33;4.65;;;4.13;;
5014;SDS011;2526;51.060;4.228;2023-04-03T06:19:58;3.92;;;3.47;;
5014;SDS011;2526;51.060;4.228;2023-04-03T06:22:24;6.60;;;3.15;;
5014;SDS011;2526;51.060;4.228;2023-04-03T06:24:51;5.38;;;4.32;;
5014;SDS011;2526;51.060;4.228;2023-04-03T06:27:16;7.45;;;5.03;;
5014;SDS011;2526;51.060;4.228;2023-04-03T06:29:41;5.82;;;3.78;;
5014;SDS011;2526;51.060;4.228;2023-04-03T06:32:07;9.85;;;4.75;;
5014;SDS011;2526;51.060;4.228;2023-04-03T06:34:32;5.45;;;3.95;;
5014;SDS011;2526;51.060;4.228;2023-04-03T06:36:58;6.97;;;4.43;;
5014;SDS011;2526;51.060;4.228;2023-04-03T06:39:25;3.33;;;2.88;;
5014;SDS011;2526;51.060;4.228;2023-04-03T06:41:50;6.07;;;4.25;;
5014;SDS011;2526;51.060;4.228;2023-04-03T06:44:16;3.55;;;3.05;;
5014;SDS011;2526;51.060;4.228;2023-04-03T06:46:42;9.32;;;4.72;;
5014;SDS011;2526;51.060;4.228;2023-04-03T06:49:08;5.85;;;4.10;;
5014;SDS011;2526;51.060;4.228;2023-04-03T06:51:34;8.98;;;3.92;;
5014;SDS011;2526;51.060;4.228;2023-04-03T06:54:00;8.02;;;3.63;;
5014;SDS011;2526;51.060;4.228;2023-04-03T06:56:26;9.15;;;2.83;;
5014;SDS011;2526;51.060;4.228;2023-04-03T06:58:52;4.35;;;3.40;;
5014;SDS011;2526;51.060;4.228;2023-04-03T07:01:19;5.72;;;3.25;;
5014;SDS011;2526;51.060;4.228;2023-04-03T07:03:45;5.43;;;2.67;;
5014;SDS011;2526;51.060;4.228;2023-04-03T07:06:12;3.67;;;2.90;;
5014;SDS011;2526;51.060;4.228;2023-04-03T07:08:38;3.10;;;2.33;;
5014;SDS011;2526;51.060;4.228;2023-04-03T07:11:04;3.65;;;2.30;;
5014;SDS011;2526;51.060;4.228;2023-04-03T07:13:30;5.00;;;3.05;;
5014;SDS011;2526;51.060;4.228;2023-04-03T07:15:55;7.38;;;2.70;;
5014;SDS011;2526;51.060;4.228;2023-04-03T07:18:21;4.25;;;2.50;;
5014;SDS011;2526;51.060;4.228;2023-04-03T07:20:47;3.25;;;2.58;;
5014;SDS011;2526;51.060;4.228;2023-04-03T07:23:12;9.63;;;2.88;;
5014;SDS011;2526;51.060;4.228;2023-04-03T07:25:48;3.22;;;1.80;;
5014;SDS011;2526;51.060;4.228;2023-04-03T07:28:14;5.18;;;2.22;;
5014;SDS011;2526;51.060;4.228;2023-04-03T07:30:49;3.15;;;2.55;;
5014;SDS011;2526;51.060;4.228;2023-04-03T07:33:17;2.33;;;1.70;;
5014;SDS011;2526;51.060;4.228;2023-04-03T07:35:43;3.17;;;2.08;;
5014;SDS011;2526;51.060;4.228;2023-04-03T07:38:08;3.55;;;2.40;;
5014;SDS011;2526;51.060;4.228;2023-04-03T07:40:34;3.05;;;1.98;;
5014;SDS011;2526;51.060;4.228;2023-04-03T07:43:00;4.55;;;2.40;;
5014;SDS011;2526;51.060;4.228;2023-04-03T07:45:25;2.35;;;2.13;;
5014;SDS011;2526;51.060;4.228;2023-04-03T07:47:51;4.82;;;2.60;;
5014;SDS011;2526;51.060;4.228;2023-04-03T07:50:17;6.10;;;2.60;;
5014;SDS011;2526;51.060;4.228;2023-04-03T07:52:43;6.38;;;2.55;;
5014;SDS011;2526;51.060;4.228;2023-04-03T07:55:08;5.80;;;3.03;;
5014;SDS011;2526;51.060;4.228;2023-04-03T07:57:34;5.45;;;2.03;;
5014;SDS011;2526;51.060;4.228;2023-04-03T08:00:00;3.80;;;2.58;;
5014;SDS011;2526;51.060;4.228;2023-04-03T08:02:26;2.92;;;1.77;;
5014;SDS011;2526;51.060;4.228;2023-04-03T08:04:52;2.33;;;1.75;;
5014;SDS011;2526;51.060;4.228;2023-04-03T08:07:17;4.18;;;2.22;;
5014;SDS011;2526;51.060;4.228;2023-04-03T08:09:42;6.18;;;2.17;;
5014;SDS011;2526;51.060;4.228;2023-04-03T08:12:09;2.50;;;1.70;;
5014;SDS011;2526;51.060;4.228;2023-04-03T08:14:36;4.35;;;2.63;;
5014;SDS011;2526;51.060;4.228;2023-04-03T08:17:02;4.47;;;2.80;;
5014;SDS011;2526;51.060;4.228;2023-04-03T08:19:30;2.35;;;1.83;;
5014;SDS011;2526;51.060;4.228;2023-04-03T08:21:56;4.15;;;2.17;;
5014;SDS011;2526;51.060;4.228;2023-04-03T08:24:22;4.15;;;2.15;;
5014;SDS011;2526;51.060;4.228;2023-04-03T08:26:48;3.90;;;1.73;;
5014;SDS011;2526;51.060;4.228;2023-04-03T08:29:13;3.47;;;1.90;;
5014;SDS011;2526;51.060;4.228;2023-04-03T08:31:39;6.47;;;2.60;;
5014;SDS011;2526;51.060;4.228;2023-04-03T08:34:04;3.05;;;2.20;;
5014;SDS011;2526;51.060;4.228;2023-04-03T08:36:30;2.28;;;1.95;;
5014;SDS011;2526;51.060;4.228;2023-04-03T08:38:56;2.90;;;1.75;;
5014;SDS011;2526;51.060;4.228;2023-04-03T08:44:03;2.92;;;1.33;;
5014;SDS011;2526;51.060;4.228;2023-04-03T08:46:38;7.60;;;1.52;;
5014;SDS011;2526;51.060;4.228;2023-04-03T08:49:04;3.30;;;1.50;;
5014;SDS011;2526;51.060;4.228;2023-04-03T08:51:35;1.13;;;1.00;;
5014;SDS011;2526;51.060;4.228;2023-04-03T08:54:04;2.65;;;1.42;;
5014;SDS011;2526;51.060;4.228;2023-04-03T08:56:33;3.30;;;1.70;;
5014;SDS011;2526;51.060;4.228;2023-04-03T08:59:06;3.47;;;1.48;;
5014;SDS011;2526;51.060;4.228;2023-04-03T09:01:36;2.15;;;1.48;;
5014;SDS011;2526;51.060;4.228;2023-04-03T09:04:05;4.13;;;1.73;;
5014;SDS011;2526;51.060;4.228;2023-04-03T09:06:34;7.40;;;1.13;;
5014;SDS011;2526;51.060;4.228;2023-04-03T09:11:41;1.48;;;1.17;;
5014;SDS011;2526;51.060;4.228;2023-04-03T09:21:56;3.05;;;1.10;;
5014;SDS011;2526;51.060;4.228;2023-04-03T09:24:22;3.03;;;1.20;;
5014;SDS011;2526;51.060;4.228;2023-04-03T09:26:53;2.65;;;1.20;;
5014;SDS011;2526;51.060;4.228;2023-04-03T09:29:23;1.92;;;0.93;;
5014;SDS011;2526;51.060;4.228;2023-04-03T09:31:50;2.08;;;1.52;;
5014;SDS011;2526;51.060;4.228;2023-04-03T09:36:44;0.70;;;0.70;;
5014;SDS011;2526;51.060;4.228;2023-04-03T09:39:11;4.85;;;1.67;;
5014;SDS011;2526;51.060;4.228;2023-04-03T09:41:37;2.70;;;1.02;;
5014;SDS011;2526;51.060;4.228;2023-04-03T09:44:04;1.48;;;0.85;;
5014;SDS011;2526;51.060;4.228;2023-04-03T09:46:43;2.97;;;0.85;;
5014;SDS011;2526;51.060;4.228;2023-04-03T09:49:08;5.20;;;1.25;;
5014;SDS011;2526;51.060;4.228;2023-04-03T09:51:36;0.95;;;0.57;;
5014;SDS011;2526;51.060;4.228;2023-04-03T09:54:01;1.63;;;1.02;;
5014;SDS011;2526;51.060;4.228;2023-04-03T09:56:50;1.33;;;0.88;;
5014;SDS011;2526;51.060;4.228;2023-04-03T09:59:16;3.70;;;0.50;;
5014;SDS011;2526;51.060;4.228;2023-04-03T10:01:43;1.77;;;0.70;;
5014;SDS011;2526;51.060;4.228;2023-04-03T10:04:16;2.35;;;0.80;;
5014;SDS011;2526;51.060;4.228;2023-04-03T10:06:42;2.13;;;0.55;;
5014;SDS011;2526;51.060;4.228;2023-04-03T10:12:00;1.40;;;1.13;;
5014;SDS011;2526;51.060;4.228;2023-04-03T10:14:26;0.75;;;0.45;;
5014;SDS011;2526;51.060;4.228;2023-04-03T10:16:54;4.28;;;1.13;;
5014;SDS011;2526;51.060;4.228;2023-04-03T10:25:04;1.48;;;0.93;;
5014;SDS011;2526;51.060;4.228;2023-04-03T10:32:55;0.88;;;0.25;;
5014;SDS011;2526;51.060;4.228;2023-04-03T10:35:42;2.05;;;0.60;;
5014;SDS011;2526;51.060;4.228;2023-04-03T10:38:20;0.88;;;0.88;;
5014;SDS011;2526;51.060;4.228;2023-04-03T10:41:00;1.13;;;0.60;;
5014;SDS011;2526;51.060;4.228;2023-04-03T10:43:32;0.50;;;0.47;;
5014;SDS011;2526;51.060;4.228;2023-04-03T10:46:09;2.20;;;0.80;;
5014;SDS011;2526;51.060;4.228;2023-04-03T10:48:42;0.63;;;0.32;;
5014;SDS011;2526;51.060;4.228;2023-04-03T10:56:40;0.50;;;0.40;;
5014;SDS011;2526;51.060;4.228;2023-04-03T10:59:18;0.65;;;0.50;;
5014;SDS011;2526;51.060;4.228;2023-04-03T11:01:51;0.30;;;0.30;;
5014;SDS011;2526;51.060;4.228;2023-04-03T11:04:17;0.55;;;0.45;;
5014;SDS011;2526;51.060;4.228;2023-04-03T11:06:46;1.85;;;0.75;;
5014;SDS011;2526;51.060;4.228;2023-04-03T11:09:22;2.85;;;0.40;;
5014;SDS011;2526;51.060;4.228;2023-04-03T11:11:49;0.40;;;0.40;;
5014;SDS011;2526;51.060;4.228;2023-04-03T11:16:51;0.17;;;0.17;;
5014;SDS011;2526;51.060;4.228;2023-04-03T11:19:31;1.50;;;0.63;;
5014;SDS011;2526;51.060;4.228;2023-04-03T11:24:27;3.17;;;0.88;;
5014;SDS011;2526;51.060;4.228;2023-04-03T11:26:55;1.13;;;0.65;;
5014;SDS011;2526;51.060;4.228;2023-04-03T11:29:25;2.67;;;0.77;;
5014;SDS011;2526;51.060;4.228;2023-04-03T11:36:59;6.55;;;0.98;;
5014;SDS011;2526;51.060;4.228;2023-04-03T11:39:28;3.53;;;0.85;;
5014;SDS011;2526;51.060;4.228;2023-04-03T11:41:54;0.60;;;0.60;;
5014;SDS011;2526;51.060;4.228;2023-04-03T11:44:30;1.20;;;0.90;;
5014;SDS011;2526;51.060;4.228;2023-04-03T11:46:58;0.63;;;0.40;;
5014;SDS011;2526;51.060;4.228;2023-04-03T11:52:11;2.42;;;0.80;;
5014;SDS011;2526;51.060;4.228;2023-04-03T11:59:46;6.93;;;2.70;;
5014;SDS011;2526;51.060;4.228;2023-04-03T12:02:35;4.65;;;0.82;;
5014;SDS011;2526;51.060;4.228;2023-04-03T12:07:41;1.70;;;0.43;;
5014;SDS011;2526;51.060;4.228;2023-04-03T12:10:14;1.88;;;0.50;;
5014;SDS011;2526;51.060;4.228;2023-04-03T12:12:41;1.50;;;0.63;;
5014;SDS011;2526;51.060;4.228;2023-04-03T12:15:21;1.52;;;0.45;;
5014;SDS011;2526;51.060;4.228;2023-04-03T12:17:47;0.00;;;0.00;;
5014;SDS011;2526;51.060;4.228;2023-04-03T12:23:07;1.20;;;0.43;;
5014;SDS011;2526;51.060;4.228;2023-04-03T12:25:49;2.67;;;0.20;;
5014;SDS011;2526;51.060;4.228;2023-04-03T12:28:15;0.17;;;0.17;;
5014;SDS011;2526;51.060;4.228;2023-04-03T12:30:41;0.40;;;0.40;;
5014;SDS011;2526;51.060;4.228;2023-04-03T12:35:44;0.55;;;0.40;;
5014;SDS011;2526;51.060;4.228;2023-04-03T12:38:19;2.93;;;0.50;;
5014;SDS011;2526;51.060;4.228;2023-04-03T12:46:03;0.13;;;0.13;;
5014;SDS011;2526;51.060;4.228;2023-04-03T12:48:30;0.30;;;0.30;;
5014;SDS011;2526;51.060;4.228;2023-04-03T12:50:57;0.22;;;0.13;;
5014;SDS011;2526;51.060;4.228;2023-04-03T12:53:24;1.88;;;0.73;;
5014;SDS011;2526;51.060;4.228;2023-04-03T12:55:55;0.45;;;0.20;;
5014;SDS011;2526;51.060;4.228;2023-04-03T12:58:25;0.28;;;0.15;;
5014;SDS011;2526;51.060;4.228;2023-04-03T13:01:11;0.22;;;0.22;;
5014;SDS011;2526;51.060;4.228;2023-04-03T13:03:38;0.80;;;0.32;;
5014;SDS011;2526;51.060;4.228;2023-04-03T13:06:05;0.60;;;0.47;;
5014;SDS011;2526;51.060;4.228;2023-04-03T13:08:31;4.57;;;0.50;;
5014;SDS011;2526;51.060;4.228;2023-04-03T13:10:59;2.20;;;0.60;;
5014;SDS011;2526;51.060;4.228;2023-04-03T13:13:26;4.05;;;0.85;;
5014;SDS011;2526;51.060;4.228;2023-04-03T13:15:51;0.35;;;0.35;;
5014;SDS011;2526;51.060;4.228;2023-04-03T13:18:25;1.75;;;0.57;;
5014;SDS011;2526;51.060;4.228;2023-04-03T13:20:51;2.20;;;0.60;;
5014;SDS011;2526;51.060;4.228;2023-04-03T13:23:17;3.72;;;0.20;;
5014;SDS011;2526;51.060;4.228;2023-04-03T13:25:45;2.85;;;0.50;;
5014;SDS011;2526;51.060;4.228;2023-04-03T13:28:13;1.02;;;0.50;;
5014;SDS011;2526;51.060;4.228;2023-04-03T13:30:41;1.75;;;0.40;;
5014;SDS011;2526;51.060;4.228;2023-04-03T13:33:20;0.40;;;0.40;;
5014;SDS011;2526;51.060;4.228;2023-04-03T13:35:46;1.05;;;0.43;;
5014;SDS011;2526;51.060;4.228;2023-04-03T13:40:51;1.67;;;0.93;;
5014;SDS011;2526;51.060;4.228;2023-04-03T13:45:54;1.00;;;0.35;;
5014;SDS011;2526;51.060;4.228;2023-04-03T13:48:20;2.17;;;0.30;;
5014;SDS011;2526;51.060;4.228;2023-04-03T13:50:52;0.93;;;0.40;;
5014;SDS011;2526;51.060;4.228;2023-04-03T13:53:18;0.50;;;0.32;;
5014;SDS011;2526;51.060;4.228;2023-04-03T14:01:19;0.10;;;0.10;;
5014;SDS011;2526;51.060;4.228;2023-04-03T14:03:47;2.42;;;0.50;;
5014;SDS011;2526;51.060;4.228;2023-04-03T14:06:14;2.08;;;0.70;;
5014;SDS011;2526;51.060;4.228;2023-04-03T14:08:40;0.85;;;0.40;;
5014;SDS011;2526;51.060;4.228;2023-04-03T14:11:08;1.17;;;0.68;;
5014;SDS011;2526;51.060;4.228;2023-04-03T14:13:34;3.47;;;0.68;;
5014;SDS011;2526;51.060;4.228;2023-04-03T14:16:00;0.55;;;0.20;;
5014;SDS011;2526;51.060;4.228;2023-04-03T14:18:27;0.50;;;0.50;;
5014;SDS011;2526;51.060;4.228;2023-04-03T14:20:53;0.63;;;0.40;;
5014;SDS011;2526;51.060;4.228;2023-04-03T14:23:18;0.52;;;0.52;;
5014;SDS011;2526;51.060;4.228;2023-04-03T14:25:44;2.95;;;1.02;;
5014;SDS011;2526;51.060;4.228;2023-04-03T14:28:14;3.05;;;0.70;;
5014;SDS011;2526;51.060;4.228;2023-04-03T14:30:40;1.90;;;0.70;;
5014;SDS011;2526;51.060;4.228;2023-04-03T14:33:06;0.63;;;0.63;;
5014;SDS011;2526;51.060;4.228;2023-04-03T14:35:32;0.70;;;0.35;;
5014;SDS011;2526;51.060;4.228;2023-04-03T14:37:57;2.88;;;0.70;;
5014;SDS011;2526;51.060;4.228;2023-04-03T14:40:24;0.28;;;0.28;;
5014;SDS011;2526;51.060;4.228;2023-04-03T14:42:50;0.65;;;0.60;;
5014;SDS011;2526;51.060;4.228;2023-04-03T14:45:16;0.65;;;0.50;;
5014;SDS011;2526;51.060;4.228;2023-04-03T14:47:54;1.25;;;0.50;;
5014;SDS011;2526;51.060;4.228;2023-04-03T14:50:23;2.08;;;0.47;;
5014;SDS011;2526;51.060;4.228;2023-04-03T14:52:50;1.05;;;0.40;;
5014;SDS011;2526;51.060;4.228;2023-04-03T14:55:17;2.60;;;0.55;;
5014;SDS011;2526;51.060;4.228;2023-04-03T14:57:43;0.40;;;0.30;;
5014;SDS011;2526;51.060;4.228;2023-04-03T15:00:15;3.97;;;0.40;;
5014;SDS011;2526;51.060;4.228;2023-04-03T15:02:41;6.43;;;0.40;;
5014;SDS011;2526;51.060;4.228;2023-04-03T15:05:10;0.57;;;0.40;;
5014;SDS011;2526;51.060;4.228;2023-04-03T15:07:36;1.42;;;0.52;;
5014;SDS011;2526;51.060;4.228;2023-04-03T15:10:06;0.65;;;0.50;;
5014;SDS011;2526;51.060;4.228;2023-04-03T15:12:38;2.85;;;0.50;;
5014;SDS011;2526;51.060;4.228;2023-04-03T15:15:04;0.68;;;0.35;;
5014;SDS011;2526;51.060;4.228;2023-04-03T15:17:30;0.40;;;0.38;;
5014;SDS011;2526;51.060;4.228;2023-04-03T15:19:55;0.57;;;0.28;;
5014;SDS011;2526;51.060;4.228;2023-04-03T15:22:21;0.65;;;0.20;;
5014;SDS011;2526;51.060;4.228;2023-04-03T15:24:46;0.77;;;0.30;;
5014;SDS011;2526;51.060;4.228;2023-04-03T15:27:12;3.55;;;0.40;;
5014;SDS011;2526;51.060;4.228;2023-04-03T15:29:38;0.30;;;0.30;;
5014;SDS011;2526;51.060;4.228;2023-04-03T15:32:04;2.30;;;0.77;;
5014;SDS011;2526;51.060;4.228;2023-04-03T15:34:30;0.98;;;0.45;;
5014;SDS011;2526;51.060;4.228;2023-04-03T15:36:56;0.43;;;0.40;;
5014;SDS011;2526;51.060;4.228;2023-04-03T15:39:21;0.55;;;0.40;;
5014;SDS011;2526;51.060;4.228;2023-04-03T15:41:48;0.28;;;0.28;;
5014;SDS011;2526;51.060;4.228;2023-04-03T15:44:14;0.50;;;0.28;;
5014;SDS011;2526;51.060;4.228;2023-04-03T15:46:42;1.75;;;0.68;;
5014;SDS011;2526;51.060;4.228;2023-04-03T15:49:08;1.10;;;0.60;;
5014;SDS011;2526;51.060;4.228;2023-04-03T15:51:33;2.65;;;0.98;;
5014;SDS011;2526;51.060;4.228;2023-04-03T15:53:59;0.50;;;0.50;;
5014;SDS011;2526;51.060;4.228;2023-04-03T15:56:25;0.20;;;0.20;;
5014;SDS011;2526;51.060;4.228;2023-04-03T15:58:50;2.13;;;0.80;;
5014;SDS011;2526;51.060;4.228;2023-04-03T16:01:15;3.50;;;0.38;;
5014;SDS011;2526;51.060;4.228;2023-04-03T16:03:41;1.17;;;0.68;;
5014;SDS011;2526;51.060;4.228;2023-04-03T16:06:11;0.40;;;0.40;;
5014;SDS011;2526;51.060;4.228;2023-04-03T16:08:37;1.10;;;0.55;;
5014;SDS011;2526;51.060;4.228;2023-04-03T16:11:02;1.15;;;0.70;;
5014;SDS011;2526;51.060;4.228;2023-04-03T16:13:28;5.85;;;0.57;;
5014;SDS011;2526;51.060;4.228;2023-04-03T16:15:53;0.80;;;0.40;;
5014;SDS011;2526;51.060;4.228;2023-04-03T16:18:19;0.50;;;0.50;;
5014;SDS011;2526;51.060;4.228;2023-04-03T16:20:45;0.65;;;0.65;;
5014;SDS011;2526;51.060;4.228;2023-04-03T16:23:10;2.00;;;0.77;;
5014;SDS011;2526;51.060;4.228;2023-04-03T16:25:36;0.90;;;0.55;;
5014;SDS011;2526;51.060;4.228;2023-04-03T16:28:02;0.80;;;0.50;;
5014;SDS011;2526;51.060;4.228;2023-04-03T16:30:28;0.60;;;0.60;;
5014;SDS011;2526;51.060;4.228;2023-04-03T16:32:54;1.30;;;0.60;;
5014;SDS011;2526;51.060;4.228;2023-04-03T16:35:20;0.30;;;0.30;;
5014;SDS011;2526;51.060;4.228;2023-04-03T16:37:46;1.55;;;0.57;;
5014;SDS011;2526;51.060;4.228;2023-04-03T16:40:12;0.32;;;0.32;;
5014;SDS011;2526;51.060;4.228;2023-04-03T16:42:37;1.35;;;0.47;;